Time;durP1;ratioP1;P1;durP2;ratioP2;P2;SDS_P1;SDS_P2;PMS_P1;PMS_P2;Temp;Humidity;BMP_temperature;BMP_pressure;BME280_temperature;BME280_humidity;BME280_pressure;Samples;Min_cycle;Max_cycle;Signal;HPM_P1;HPM_P2
2022/11/08 00:02:27;;;;;;;12.40;4.00;;;;;;;11.56;69.73;100212.91;10384881;28;20049;-63
2022/11/08 00:18:08;;;;;;;6.07;2.90;;;;;;;11.42;70.06;100203.81;10387753;28;20069;-63
2022/11/08 00:23:09;;;;;;;9.63;3.25;;;;;;;11.40;69.70;100195.06;10381681;28;20502;-63
2022/11/08 00:28:10;;;;;;;8.73;3.83;;;;;;;11.35;69.97;100212.78;10384556;28;20121;-63
2022/11/08 00:33:12;;;;;;;12.30;4.40;;;;;;;11.32;69.91;100211.31;10383491;28;20080;-64
2022/11/08 00:38:13;;;;;;;11.23;3.65;;;;;;;11.24;69.82;100208.72;10388516;28;20050;-63
2022/11/08 00:43:15;;;;;;;8.77;3.75;;;;;;;11.21;70.27;100212.59;10383320;28;20049;-63
2022/11/08 00:48:16;;;;;;;12.23;4.07;;;;;;;11.15;70.16;100210.63;10377668;28;20647;-64
2022/11/08 00:53:18;;;;;;;11.65;4.20;;;;;;;11.08;70.11;100204.34;10383574;28;20072;-64
2022/11/08 00:58:19;;;;;;;7.97;3.40;;;;;;;11.02;70.49;100213.09;10376597;28;20696;-64
2022/11/08 01:03:27;;;;;;;;;;;;;;;10.93;70.06;100206.16;10381436;28;20045;-64
2022/11/08 01:08:28;;;;;;;10.77;3.83;;;;;;;10.86;70.28;100206.03;10383517;28;19927;-64
2022/11/08 01:13:30;;;;;;;14.63;3.95;;;;;;;10.81;70.34;100211.94;10384995;28;20069;-64
2022/11/08 01:18:32;;;;;;;12.02;3.45;;;;;;;10.75;70.43;100209.16;10368317;28;20133;-63
2022/11/08 01:23:33;;;;;;;10.32;3.42;;;;;;;10.67;70.80;100207.38;10382799;28;20041;-64
2022/11/08 01:28:35;;;;;;;8.57;4.03;;;;;;;10.60;70.53;100190.28;10384852;28;20148;-64
2022/11/08 01:33:37;;;;;;;8.93;3.03;;;;;;;10.59;70.64;100186.78;10383356;28;20084;-64
2022/11/08 01:38:39;;;;;;;7.55;3.10;;;;;;;10.53;70.96;100184.81;10385277;28;20056;-63
2022/11/08 01:43:41;;;;;;;9.25;3.20;;;;;;;10.50;70.73;100177.94;10381601;28;20164;-64
2022/11/08 01:48:55;;;;;;;9.70;3.80;;;;;;;10.48;70.73;100169.19;10385516;28;20056;-64
2022/11/08 01:53:59;;;;;;;10.13;3.63;;;;;;;10.46;70.76;100162.34;10391060;28;20045;-64
2022/11/08 01:59:02;;;;;;;7.20;2.95;;;;;;;10.40;70.70;100177.31;10387302;28;20034;-64
2022/11/08 02:04:04;;;;;;;9.75;3.70;;;;;;;10.33;70.72;100157.59;10391335;28;20124;-64
2022/11/08 02:09:09;;;;;;;13.88;4.20;;;;;;;10.30;70.58;100149.88;10386145;28;20637;-64
2022/11/08 02:14:11;;;;;;;10.00;3.00;;;;;;;10.22;70.83;100141.84;10389001;28;20136;-63
2022/11/08 02:19:21;;;;;;;10.80;3.72;;;;;;;10.19;70.40;100145.72;10385658;28;20129;-63
2022/11/08 02:24:23;;;;;;;9.02;3.28;;;;;;;10.13;70.62;100155.34;10387409;28;20073;-64
2022/11/08 02:29:33;;;;;;;8.60;2.95;;;;;;;10.10;70.77;100144.09;10391388;28;20891;-64
2022/11/08 02:34:44;;;;;;;8.52;3.05;;;;;;;10.05;70.78;100146.47;10387328;28;20080;-64
2022/11/08 02:39:46;;;;;;;5.90;3.17;;;;;;;10.02;70.73;100149.53;10387075;28;20060;-64
2022/11/08 02:44:48;;;;;;;6.85;2.65;;;;;;;9.96;70.68;100137.63;10388835;28;20069;-64
2022/11/08 02:49:50;;;;;;;4.25;3.17;;;;;;;9.90;70.77;100127.63;10387472;28;20480;-64
2022/11/08 02:54:51;;;;;;;7.25;3.10;;;;;;;9.83;71.00;100130.16;10383153;28;20120;-64
2022/11/08 02:59:52;;;;;;;6.30;3.50;;;;;;;9.81;70.77;100121.44;10388912;28;20042;-63
2022/11/08 03:04:54;;;;;;;14.25;3.65;;;;;;;9.79;70.81;100120.78;10390851;28;20060;-64
2022/11/08 03:09:55;;;;;;;7.53;3.67;;;;;;;9.72;70.83;100117.97;10389969;28;20061;-64
2022/11/08 03:14:57;;;;;;;7.15;3.45;;;;;;;9.70;70.67;100116.50;10389169;28;20077;-63
2022/11/08 03:19:58;;;;;;;13.68;4.28;;;;;;;9.67;70.77;100108.78;10385584;28;20054;-64
2022/11/08 03:24:59;;;;;;;7.10;4.07;;;;;;;9.63;70.78;100110.16;10384934;28;20492;-64
2022/11/08 03:30:01;;;;;;;5.93;3.50;;;;;;;9.59;70.88;100106.97;10382314;28;20050;-64
2022/11/08 03:35:03;;;;;;;9.00;3.15;;;;;;;9.57;71.01;100102.81;10390975;28;20055;-64
2022/11/08 03:40:05;;;;;;;7.28;3.67;;;;;;;9.51;71.00;100093.59;10390754;28;20441;-64
2022/11/08 03:45:06;;;;;;;8.23;4.10;;;;;;;9.48;70.76;100080.56;10386552;28;20512;-64
2022/11/08 03:50:08;;;;;;;8.25;4.18;;;;;;;9.44;70.93;100087.25;10389610;28;20073;-64
2022/11/08 03:55:11;;;;;;;9.32;3.85;;;;;;;9.39;71.05;100090.47;10367872;28;20133;-64
2022/11/08 04:00:15;;;;;;;8.55;3.95;;;;;;;9.36;70.76;100089.97;10381320;28;20124;-64
2022/11/08 04:05:17;;;;;;;9.60;4.75;;;;;;;9.28;71.09;100091.72;10371829;28;20108;-63
2022/11/08 04:10:19;;;;;;;10.38;5.28;;;;;;;9.27;71.02;100083.81;10389135;28;20161;-64
2022/11/08 04:15:22;;;;;;;11.77;7.82;;;;;;;9.21;71.04;100063.91;10383155;28;20045;-64
2022/11/08 04:25:44;;;;;;;7.97;4.80;;;;;;;9.08;71.09;100058.25;10389865;28;20041;-64
2022/11/08 04:30:50;;;;;;;11.13;5.38;;;;;;;9.05;70.88;100051.41;10379442;28;20128;-64
2022/11/08 04:35:53;;;;;;;11.93;3.93;;;;;;;9.00;70.95;100043.03;10387888;28;20107;-64
2022/11/08 04:41:01;;;;;;;14.38;5.15;;;;;;;8.93;71.36;100031.34;10368704;28;20084;-64
2022/11/08 04:46:09;;;;;;;8.27;4.88;;;;;;;8.83;71.69;100041.44;10380959;28;20050;-64
2022/11/08 04:51:16;;;;;;;8.55;4.72;;;;;;;8.81;71.72;100027.38;10361247;28;20044;-64
2022/11/08 04:56:20;;;;;;;10.45;4.90;;;;;;;8.82;71.34;100029.84;10384256;28;20048;-64
2022/11/08 05:01:24;;;;;;;12.70;4.93;;;;;;;8.84;71.30;100021.66;10378499;28;20056;-63
2022/11/08 05:06:30;;;;;;;11.18;4.47;;;;;;;8.79;70.97;100024.84;10384392;28;20399;-63
2022/11/08 05:11:32;;;;;;;11.80;4.93;;;;;;;8.77;71.55;100020.66;10370766;28;20163;-64
2022/11/08 05:16:33;;;;;;;7.97;4.22;;;;;;;8.77;71.36;100017.97;10385579;28;20148;-63
2022/11/08 05:26:54;;;;;;;6.88;4.57;;;;;;;8.67;71.34;99997.59;10383697;28;20075;-65
2022/11/08 05:31:56;;;;;;;6.97;4.47;;;;;;;8.64;71.37;100002.44;10366329;28;20085;-64
2022/11/08 05:36:57;;;;;;;9.23;4.38;;;;;;;8.60;71.22;100007.31;10377432;28;20399;-64
2022/11/08 05:41:59;;;;;;;7.88;4.38;;;;;;;8.51;71.67;99985.09;10385820;28;20053;-64
2022/11/08 05:47:00;;;;;;;8.77;4.95;;;;;;;8.52;71.32;99985.91;10363654;28;20407;-65
2022/11/08 05:52:02;;;;;;;9.00;4.95;;;;;;;8.51;71.31;99978.88;10382563;28;20046;-67
2022/11/08 05:57:03;;;;;;;15.70;5.40;;;;;;;8.37;71.17;99985.72;10380766;28;20583;-64
2022/11/08 06:02:04;;;;;;;15.18;6.80;;;;;;;8.40;71.42;99974.69;10380609;28;20046;-65
2022/11/08 06:07:06;;;;;;;12.30;5.70;;;;;;;8.41;71.78;99981.75;10386385;28;20060;-65
2022/11/08 06:12:08;;;;;;;14.80;6.05;;;;;;;8.40;71.38;99972.00;10389281;28;20045;-67
2022/11/08 06:17:09;;;;;;;11.40;4.90;;;;;;;8.40;71.55;99976.53;10385524;28;20045;-65
2022/11/08 06:22:11;;;;;;;14.43;4.63;;;;;;;8.38;71.63;99982.06;10386819;28;20054;-65
2022/11/08 06:27:13;;;;;;;15.27;4.90;;;;;;;8.37;71.47;99995.63;10377174;28;20220;-62
2022/11/08 06:32:14;;;;;;;13.23;5.35;;;;;;;8.37;71.76;100004.47;10385137;28;20073;-63
2022/11/08 06:37:16;;;;;;;12.15;6.82;;;;;;;8.39;71.21;100004.31;10385075;28;20841;-62
2022/11/08 06:42:17;;;;;;;11.27;5.05;;;;;;;8.38;71.79;99984.75;10391686;28;20042;-62
2022/11/08 06:47:19;;;;;;;11.45;4.80;;;;;;;8.35;71.58;99995.78;10389449;28;20135;-63
2022/11/08 06:52:20;;;;;;;13.15;5.82;;;;;;;8.38;72.00;99992.78;10388607;28;20049;-63
2022/11/08 06:57:21;;;;;;;15.20;7.13;;;;;;;8.46;71.74;99986.59;10388027;28;20066;-64
2022/11/08 07:02:23;;;;;;;15.25;7.88;;;;;;;8.50;71.65;100002.16;10371553;28;20081;-63
2022/11/08 07:07:24;;;;;;;14.38;6.80;;;;;;;8.56;71.67;99995.28;10390111;28;20050;-64
2022/11/08 07:12:26;;;;;;;13.48;6.88;;;;;;;8.73;71.71;99996.06;10394547;28;20491;-64
2022/11/08 07:17:27;;;;;;;12.05;6.03;;;;;;;8.82;72.05;100000.38;10385133;28;20088;-63
2022/11/08 07:22:28;;;;;;;16.90;7.57;;;;;;;8.93;71.35;99996.50;10388887;28;20132;-65
2022/11/08 07:27:30;;;;;;;11.00;5.00;;;;;;;9.01;71.43;100001.00;10388496;28;20124;-65
2022/11/08 07:32:31;;;;;;;12.23;5.95;;;;;;;9.03;71.58;100010.53;10388367;28;20501;-64
2022/11/08 07:37:32;;;;;;;9.27;5.57;;;;;;;9.12;71.75;100011.31;10382367;28;20077;-65
2022/11/08 07:42:38;;;;;;;12.40;6.40;;;;;;;9.24;71.31;100015.28;10390115;28;20069;-64
2022/11/08 07:48:02;;;;;;;15.63;6.32;;;;;;;9.33;71.20;100019.56;10382578;28;20050;-65
2022/11/08 07:53:11;;;;;;;12.80;5.80;;;;;;;9.44;71.58;100010.31;10385790;28;20046;-65
2022/11/08 07:58:14;;;;;;;9.70;5.82;;;;;;;9.56;71.51;100021.47;10391511;28;20060;-65
2022/11/08 08:03:15;;;;;;;11.60;6.75;;;;;;;9.70;71.54;100026.06;10387355;28;20111;-64
2022/11/08 08:08:18;;;;;;;12.82;6.80;;;;;;;9.81;71.58;100024.81;10381916;28;20041;-64
2022/11/08 08:13:19;;;;;;;16.98;7.32;;;;;;;9.96;71.52;100029.41;10385062;28;20041;-65
2022/11/08 08:18:21;;;;;;;16.58;7.50;;;;;;;10.11;71.47;100025.75;10385069;28;20506;-65
2022/11/08 08:23:23;;;;;;;11.32;7.10;;;;;;;10.24;71.53;100026.97;10385783;28;20464;-65
2022/11/08 08:28:24;;;;;;;10.90;6.25;;;;;;;10.36;71.73;100027.41;10386333;28;20141;-65
2022/11/08 08:33:26;;;;;;;8.95;5.80;;;;;;;10.43;71.58;100023.81;10385308;28;20141;-65
2022/11/08 08:38:35;;;;;;;12.18;5.38;;;;;;;10.56;71.70;100020.47;10388477;28;20595;-65
2022/11/08 08:43:44;;;;;;;13.40;5.38;;;;;;;10.68;71.91;100027.09;10379640;28;20046;-64
2022/11/08 08:48:45;;;;;;;13.30;5.88;;;;;;;10.90;72.20;100024.50;10383681;28;20124;-65
2022/11/08 08:53:47;;;;;;;11.35;5.95;;;;;;;11.15;72.38;100013.41;10380624;28;20065;-65
2022/11/08 08:58:49;;;;;;;12.43;5.30;;;;;;;11.34;72.27;100017.38;10383306;28;20052;-64
2022/11/08 09:04:10;;;;;;;11.82;6.05;;;;;;;11.45;72.24;100022.25;10382661;28;20076;-65
2022/11/08 09:09:11;;;;;;;10.43;6.35;;;;;;;11.51;71.90;100026.88;10379176;28;20135;-64
2022/11/08 09:14:13;;;;;;;13.98;5.20;;;;;;;11.61;72.04;100032.81;10381400;28;20051;-63
2022/11/08 09:19:14;;;;;;;12.07;5.53;;;;;;;11.70;71.66;100025.44;10379226;28;20052;-63
2022/11/08 09:24:16;;;;;;;11.30;6.55;;;;;;;11.79;71.81;100023.44;10394358;28;20140;-63
2022/11/08 09:29:17;;;;;;;9.48;5.38;;;;;;;11.88;71.28;100027.69;10388073;28;20562;-63
2022/11/08 09:34:18;;;;;;;13.32;6.03;;;;;;;11.97;71.33;100031.94;10385713;28;20472;-64
2022/11/08 09:39:22;;;;;;;14.45;6.10;;;;;;;12.10;71.61;100025.84;10383942;28;20140;-63
2022/11/08 09:44:58;;;;;;;11.38;5.40;;;;;;;12.37;71.56;100021.50;10387375;28;20144;-63
2022/11/08 09:50:25;;;;;;;11.48;5.30;;;;;;;12.75;71.13;100004.13;10385340;28;20077;-65
2022/11/08 09:55:33;;;;;;;14.45;6.38;;;;;;;13.21;70.75;100004.34;10340356;28;20140;-63
2022/11/08 10:00:39;;;;;;;9.63;4.40;;;;;;;13.46;70.34;100010.06;10380697;28;20104;-64
2022/11/08 10:05:47;;;;;;;5.18;2.47;;;;;;;13.60;69.46;100010.09;10380549;28;20054;-63
2022/11/08 10:11:06;;;;;;;4.90;2.28;;;;;;;13.76;68.38;99998.91;10383915;28;20142;-64
2022/11/08 10:16:16;;;;;;;4.28;2.28;;;;;;;13.98;67.80;99987.91;10388628;28;20069;-63
2022/11/08 10:21:36;;;;;;;7.20;2.65;;;;;;;14.05;67.40;99981.47;10391593;28;20125;-63
2022/11/08 10:26:44;;;;;;;6.55;2.55;;;;;;;14.29;66.45;99969.19;10392294;28;20045;-63
2022/11/08 10:31:48;;;;;;;5.40;1.85;;;;;;;14.39;66.32;99966.03;10388492;28;20052;-63
2022/11/08 10:37:01;;;;;;;7.53;2.55;;;;;;;14.53;65.67;99966.03;10391664;28;20124;-63
2022/11/08 10:42:14;;;;;;;5.85;2.10;;;;;;;14.72;65.06;99969.78;10391055;28;20476;-63
2022/11/08 10:47:28;;;;;;;5.50;1.33;;;;;;;14.80;64.42;99967.66;10391463;28;20088;-63
2022/11/08 10:52:35;;;;;;;4.28;1.20;;;;;;;14.98;63.51;99982.38;10386709;28;20557;-63
2022/11/08 10:57:41;;;;;;;2.53;1.20;;;;;;;15.11;62.93;99979.63;10383529;28;20523;-63
2022/11/08 11:02:44;;;;;;;4.82;1.00;;;;;;;15.33;62.03;99958.47;10393768;28;20061;-63
2022/11/08 11:07:57;;;;;;;2.67;1.10;;;;;;;15.60;61.36;99964.56;10394798;28;20081;-63
2022/11/08 11:13:17;;;;;;;3.45;0.95;;;;;;;15.73;60.48;99960.94;10384578;28;20112;-63
2022/11/08 11:18:32;;;;;;;2.90;0.90;;;;;;;15.75;60.30;99956.13;10382939;28;20511;-63
2022/11/08 11:23:38;;;;;;;4.28;1.30;;;;;;;15.94;59.57;99954.34;10390895;28;20104;-64
2022/11/08 11:28:58;;;;;;;3.25;1.17;;;;;;;15.87;59.31;99948.13;10391246;28;20069;-64
2022/11/08 11:34:25;;;;;;;1.60;1.13;;;;;;;15.88;59.21;99943.53;10388777;28;20061;-63
2022/11/08 11:39:36;;;;;;;3.28;1.67;;;;;;;15.86;58.97;99932.94;10384102;28;20045;-63
2022/11/08 11:45:16;;;;;;;4.47;1.63;;;;;;;15.94;59.21;99934.53;10384604;28;20065;-63
2022/11/08 11:50:37;;;;;;;4.22;1.42;;;;;;;16.02;58.92;99940.50;10381909;28;20128;-63
2022/11/08 11:56:02;;;;;;;6.50;1.70;;;;;;;16.18;58.42;99935.56;10383790;28;20057;-64
2022/11/08 12:01:24;;;;;;;4.35;1.90;;;;;;;16.15;58.41;99917.88;10388905;28;20096;-63
2022/11/08 12:06:39;;;;;;;2.92;1.63;;;;;;;16.17;58.27;99920.34;10391284;28;20073;-63
2022/11/08 12:12:13;;;;;;;3.65;1.58;;;;;;;16.16;58.33;99908.66;10389340;28;20037;-63
2022/11/08 12:18:01;;;;;;;4.55;1.90;;;;;;;16.16;58.49;99914.09;10384221;28;20073;-65
2022/11/08 12:23:16;;;;;;;;;;;;;;;16.16;58.75;99913.28;10200224;29;20529;-64
2022/11/08 12:28:36;;;;;;;7.70;3.10;;;;;;;16.16;58.46;99913.28;10357367;28;20008;-64
2022/11/08 12:33:51;;;;;;;9.93;3.08;;;;;;;16.14;58.55;99901.81;10385018;28;20049;-65
2022/11/08 12:39:39;;;;;;;7.07;2.90;;;;;;;16.09;58.62;99904.38;10382404;28;20060;-66
2022/11/08 12:45:07;;;;;;;32.38;4.20;;;;;;;16.17;58.64;99902.22;10373312;28;20066;-64
2022/11/08 12:50:22;;;;;;;;;;;;;;;16.10;59.31;99903.31;10388850;28;20089;-64
2022/11/08 12:55:33;;;;;;;4.38;2.60;;;;;;;16.10;58.86;99889.75;10376201;28;20411;-65
2022/11/08 13:00:38;;;;;;;6.57;2.97;;;;;;;16.18;58.84;99875.91;10392457;28;20060;-65
2022/11/08 13:05:53;;;;;;;6.15;2.03;;;;;;;16.06;58.90;99876.63;10389467;28;20050;-64
2022/11/08 13:11:02;;;;;;;6.65;2.85;;;;;;;16.07;59.10;99866.63;10387121;28;20045;-64
2022/11/08 13:16:24;;;;;;;7.13;2.10;;;;;;;16.02;59.20;99870.00;10394339;28;20169;-64
2022/11/08 13:21:37;;;;;;;6.78;2.28;;;;;;;16.11;59.12;99859.69;10387055;28;20057;-64
2022/11/08 13:26:42;;;;;;;8.57;2.75;;;;;;;16.20;59.13;99843.97;10388930;28;20103;-64
2022/11/08 13:31:56;;;;;;;12.98;2.88;;;;;;;16.42;58.87;99844.34;10386200;28;20041;-65
2022/11/08 13:37:35;;;;;;;9.40;2.75;;;;;;;16.32;58.99;99842.16;10384410;28;20439;-63
2022/11/08 13:42:55;;;;;;;9.15;2.58;;;;;;;16.33;59.30;99843.84;10391195;28;20042;-64
2022/11/08 13:48:01;;;;;;;8.90;2.35;;;;;;;16.57;58.86;99844.78;10374357;28;20148;-64
2022/11/08 13:53:19;;;;;;;13.70;2.75;;;;;;;16.65;58.64;99843.66;10390420;28;20145;-63
2022/11/08 13:58:44;;;;;;;8.70;3.03;;;;;;;16.73;58.52;99835.19;10387719;28;20060;-64
2022/11/08 14:03:45;;;;;;;7.88;2.80;;;;;;;16.85;58.31;99838.81;10374885;28;20069;-64
2022/11/08 14:09:11;;;;;;;9.85;3.42;;;;;;;16.83;58.21;99842.81;10386510;28;20736;-64
2022/11/08 14:14:22;;;;;;;15.82;3.88;;;;;;;17.00;57.62;99835.69;10368567;28;20136;-64
2022/11/08 14:19:26;;;;;;;10.13;3.00;;;;;;;16.96;57.66;99842.66;10384883;28;20045;-64
2022/11/08 14:24:36;;;;;;;12.75;3.10;;;;;;;17.02;57.51;99830.00;10387213;28;20065;-64
2022/11/08 14:29:37;;;;;;;14.13;2.40;;;;;;;17.12;57.31;99824.00;10379448;28;20197;-64
2022/11/08 14:34:38;;;;;;;10.68;2.80;;;;;;;17.10;57.25;99828.84;10377920;28;20614;-64
2022/11/08 14:39:45;;;;;;;13.95;4.43;;;;;;;17.07;57.55;99832.03;10380751;28;20061;-64
2022/11/08 14:44:46;;;;;;;11.32;2.50;;;;;;;17.01;57.78;99829.19;10380199;28;20129;-64
2022/11/08 14:49:48;;;;;;;10.95;2.90;;;;;;;17.03;57.75;99823.53;10373794;28;20468;-64
2022/11/08 14:55:10;;;;;;;11.68;2.58;;;;;;;17.02;57.86;99816.44;10379296;28;20056;-64
2022/11/08 15:00:11;;;;;;;11.65;2.78;;;;;;;16.91;58.16;99818.06;10387214;28;20076;-64
2022/11/08 15:05:30;;;;;;;6.75;2.03;;;;;;;16.84;57.78;99801.03;10387973;28;20080;-64
2022/11/08 15:10:32;;;;;;;7.30;1.90;;;;;;;16.72;58.21;99798.22;10388363;28;20140;-64
2022/11/08 15:15:34;;;;;;;5.28;1.98;;;;;;;16.67;58.19;99800.81;10369302;28;20132;-64
2022/11/08 15:20:36;;;;;;;6.20;1.50;;;;;;;16.51;58.19;99810.44;10375551;28;20045;-64
2022/11/08 15:25:37;;;;;;;4.38;1.40;;;;;;;16.35;58.18;99817.31;10388869;28;20148;-63
2022/11/08 15:30:42;;;;;;;7.53;2.17;;;;;;;16.34;57.96;99817.53;10375751;28;20056;-63
2022/11/08 15:35:45;;;;;;;3.38;1.10;;;;;;;16.26;58.05;99811.34;10384399;28;20127;-64
2022/11/08 15:40:52;;;;;;;4.28;1.08;;;;;;;16.26;58.07;99814.06;10384635;28;20481;-64
2022/11/08 15:45:54;;;;;;;5.05;1.58;;;;;;;16.32;57.68;99801.47;10386842;28;20467;-63
2022/11/08 15:50:56;;;;;;;12.68;4.72;;;;;;;16.32;57.34;99797.94;10385436;28;20046;-63
2022/11/08 15:56:03;;;;;;;5.97;1.80;;;;;;;16.16;58.11;99805.63;10383635;28;20448;-63
2022/11/08 16:01:05;;;;;;;7.32;2.28;;;;;;;15.98;58.89;99806.44;10401704;28;20048;-63
2022/11/08 16:06:10;;;;;;;7.45;2.97;;;;;;;15.91;59.22;99808.38;10386746;28;20088;-65
2022/11/08 16:11:20;;;;;;;11.27;2.28;;;;;;;15.80;59.60;99809.16;10394838;28;20483;-65
2022/11/08 16:16:22;;;;;;;10.00;2.63;;;;;;;15.66;60.08;99814.66;10402237;28;20077;-65
2022/11/08 16:21:23;;;;;;;6.82;2.28;;;;;;;15.68;60.08;99811.72;10389194;28;20100;-64
2022/11/08 16:26:25;;;;;;;7.00;3.08;;;;;;;15.74;60.15;99808.16;10395542;28;20076;-66
2022/11/08 16:31:26;;;;;;;9.82;3.00;;;;;;;15.71;60.05;99822.09;10388353;28;20037;-66
2022/11/08 16:36:28;;;;;;;7.95;2.22;;;;;;;15.69;59.92;99813.38;10376203;28;20126;-64
2022/11/08 16:41:29;;;;;;;4.50;2.20;;;;;;;15.66;59.70;99806.53;10396958;28;20401;-68
2022/11/08 16:46:30;;;;;;;5.47;2.53;;;;;;;15.65;59.63;99799.44;10383740;28;20046;-68
2022/11/08 16:51:32;;;;;;;5.70;2.25;;;;;;;15.60;59.90;99802.00;10386705;28;20041;-68
2022/11/08 16:56:34;;;;;;;9.50;3.35;;;;;;;15.54;60.09;99794.78;10386400;28;20686;-67
2022/11/08 17:01:35;;;;;;;17.13;8.30;;;;;;;15.48;60.44;99792.91;10384407;28;21040;-69
2022/11/08 17:06:37;;;;;;;15.93;7.63;;;;;;;15.36;60.78;99802.81;10383267;28;20048;-67
2022/11/08 17:11:39;;;;;;;12.70;6.55;;;;;;;15.27;61.07;99800.41;10387985;28;20046;-67
2022/11/08 17:16:41;;;;;;;15.23;7.32;;;;;;;15.18;61.55;99806.31;10368940;28;20072;-67
2022/11/08 17:21:42;;;;;;;10.20;4.78;;;;;;;15.08;61.69;99807.59;10381779;28;20120;-67
2022/11/08 17:26:45;;;;;;;18.45;9.30;;;;;;;15.04;62.01;99802.84;10386006;28;20050;-68
2022/11/08 17:31:48;;;;;;;26.80;12.38;;;;;;;15.02;61.90;99799.53;10378621;28;20044;-68
2022/11/08 17:36:51;;;;;;;24.77;11.50;;;;;;;14.99;62.44;99810.81;10382385;28;20140;-67
2022/11/08 17:41:53;;;;;;;22.05;10.35;;;;;;;14.94;62.51;99802.53;10379479;28;20048;-69
2022/11/08 17:46:54;;;;;;;18.83;8.02;;;;;;;14.94;62.57;99816.88;10379165;28;20046;-67
2022/11/08 17:51:55;;;;;;;14.77;7.00;;;;;;;14.93;62.75;99817.06;10381977;28;20058;-67
2022/11/08 17:56:57;;;;;;;14.85;6.60;;;;;;;14.87;62.93;99816.91;10383445;28;20563;-67
2022/11/08 18:01:58;;;;;;;18.10;8.70;;;;;;;14.81;63.08;99814.25;10382502;28;20128;-67
2022/11/08 18:07:00;;;;;;;27.27;13.02;;;;;;;14.73;63.41;99826.16;10380828;28;20108;-69
2022/11/08 18:12:01;;;;;;;28.13;15.48;;;;;;;14.69;63.61;99827.63;10385194;28;20069;-67
2022/11/08 18:17:03;;;;;;;20.52;11.05;;;;;;;14.58;63.79;99828.31;10388031;28;20133;-68
2022/11/08 18:22:05;;;;;;;19.30;7.75;;;;;;;14.48;64.00;99826.84;10380817;28;20145;-68
2022/11/08 18:27:06;;;;;;;16.85;6.82;;;;;;;14.40;64.23;99818.16;10384894;28;20064;-66
2022/11/08 18:32:08;;;;;;;25.63;11.82;;;;;;;14.36;64.07;99820.47;10388951;28;20040;-67
2022/11/08 18:37:09;;;;;;;24.02;12.60;;;;;;;14.25;64.49;99826.53;10393832;28;20056;-67
2022/11/08 18:42:11;;;;;;;18.17;6.45;;;;;;;14.25;64.46;99826.53;10387772;28;20078;-67
2022/11/08 18:47:12;;;;;;;20.92;10.88;;;;;;;14.25;64.39;99810.31;10387974;28;20092;-67
2022/11/08 18:52:14;;;;;;;22.77;9.93;;;;;;;14.24;64.72;99812.19;10391000;28;20140;-69
2022/11/08 18:57:15;;;;;;;15.32;9.13;;;;;;;14.20;64.74;99805.56;10376257;28;20136;-69
2022/11/08 19:02:17;;;;;;;16.67;9.07;;;;;;;14.19;64.78;99813.88;10391237;28;20060;-67
2022/11/08 19:07:19;;;;;;;17.42;9.05;;;;;;;14.18;65.00;99812.19;10395306;28;20110;-68
2022/11/08 19:12:20;;;;;;;19.83;9.75;;;;;;;14.13;64.96;99796.63;10381133;28;20042;-68
2022/11/08 19:17:21;;;;;;;14.13;7.72;;;;;;;14.08;65.30;99801.84;10386221;28;20044;-69
2022/11/08 19:22:23;;;;;;;17.23;9.27;;;;;;;13.89;65.99;99811.66;10393363;28;20061;-68
2022/11/08 19:27:24;;;;;;;12.82;6.78;;;;;;;13.96;65.89;99817.03;10387108;28;20132;-68
2022/11/08 19:32:26;;;;;;;14.68;8.50;;;;;;;13.97;65.61;99803.31;10385327;28;20170;-68
2022/11/08 19:37:27;;;;;;;16.02;7.50;;;;;;;13.95;65.86;99808.13;10388971;28;20053;-68
2022/11/08 19:42:28;;;;;;;13.98;7.90;;;;;;;13.93;65.92;99804.78;10386550;28;20073;-68
2022/11/08 19:47:30;;;;;;;12.52;7.18;;;;;;;13.88;65.75;99802.72;10397474;28;20069;-67
2022/11/08 19:52:31;;;;;;;12.07;6.38;;;;;;;13.88;65.79;99794.63;10383360;28;20129;-68
2022/11/08 19:57:33;;;;;;;13.02;6.28;;;;;;;13.86;65.82;99803.97;10393482;28;20072;-68
2022/11/08 20:02:36;;;;;;;15.70;9.73;;;;;;;13.64;66.81;99797.97;10381396;28;20464;-67
2022/11/08 20:07:37;;;;;;;16.73;9.85;;;;;;;13.70;66.63;99797.13;10387745;28;20065;-68
2022/11/08 20:12:39;;;;;;;18.27;9.43;;;;;;;13.71;66.84;99798.81;10391601;28;20073;-68
2022/11/08 20:17:41;;;;;;;17.48;9.95;;;;;;;13.73;66.49;99795.91;10394558;28;20073;-68
2022/11/08 20:22:42;;;;;;;24.13;11.88;;;;;;;13.73;66.73;99807.53;10385816;28;20559;-67
2022/11/08 20:27:49;;;;;;;14.45;8.52;;;;;;;13.73;66.55;99807.53;10388438;28;20049;-68
2022/11/08 20:32:50;;;;;;;13.30;8.88;;;;;;;13.74;66.50;99806.47;10369164;28;20123;-68
2022/11/08 20:37:55;;;;;;;15.05;7.25;;;;;;;13.75;66.85;99799.22;10380884;28;20133;-67
2022/11/08 20:42:57;;;;;;;14.65;8.10;;;;;;;13.79;66.67;99805.88;10372329;28;20054;-69
2022/11/08 20:47:58;;;;;;;12.68;7.50;;;;;;;13.79;67.01;99805.88;10381985;28;20037;-68
2022/11/08 20:53:03;;;;;;;24.75;12.93;;;;;;;13.74;67.16;99814.59;10375036;28;20434;-67
2022/11/08 20:58:04;;;;;;;26.00;15.75;;;;;;;13.78;66.99;99826.63;10389572;28;20141;-68
2022/11/08 21:03:06;;;;;;;28.00;15.93;;;;;;;13.83;66.79;99817.91;10387403;28;20136;-68
2022/11/08 21:08:07;;;;;;;19.23;11.15;;;;;;;13.84;67.17;99814.16;10390242;28;20124;-68
2022/11/08 21:13:31;;;;;;;25.75;13.05;;;;;;;13.76;67.21;99827.88;10384326;28;20107;-67
2022/11/08 21:18:34;;;;;;;18.17;10.05;;;;;;;13.78;67.64;99836.59;10370820;28;20095;-68
2022/11/08 21:23:38;;;;;;;21.30;12.07;;;;;;;13.81;67.60;99834.31;10388240;28;20135;-68
2022/11/08 21:28:40;;;;;;;20.25;11.38;;;;;;;13.75;67.62;99834.34;10386240;28;20132;-67
2022/11/08 21:33:42;;;;;;;14.13;9.07;;;;;;;13.59;68.51;99835.59;10383479;28;20061;-67
2022/11/08 21:38:43;;;;;;;15.43;9.10;;;;;;;13.64;68.61;99843.91;10372798;28;20053;-67
2022/11/08 21:43:46;;;;;;;24.17;11.38;;;;;;;13.67;68.59;99847.00;10385090;28;20050;-68
2022/11/08 21:48:56;;;;;;;25.50;13.15;;;;;;;13.71;68.93;99852.00;10385399;28;20072;-68
2022/11/08 21:53:58;;;;;;;26.17;13.65;;;;;;;13.71;69.18;99857.41;10385141;28;20145;-68
2022/11/08 21:59:00;;;;;;;28.48;14.30;;;;;;;13.68;69.45;99848.69;10385251;28;20076;-68
2022/11/08 22:04:01;;;;;;;25.25;17.02;;;;;;;13.67;69.41;99851.59;10387290;28;20041;-68
2022/11/08 22:09:03;;;;;;;27.10;13.13;;;;;;;13.66;69.48;99850.78;10389394;28;20133;-67
2022/11/08 22:14:04;;;;;;;26.38;14.73;;;;;;;13.67;69.54;99857.00;10390384;28;20480;-66
2022/11/08 22:19:05;;;;;;;20.70;11.77;;;;;;;13.71;69.69;99854.72;10393206;28;20553;-67
2022/11/08 22:24:12;;;;;;;17.77;9.65;;;;;;;13.70;69.72;99837.66;10376840;28;20077;-66
2022/11/08 22:29:15;;;;;;;13.85;7.85;;;;;;;13.71;69.81;99846.59;10395757;28;20132;-66
2022/11/08 22:34:16;;;;;;;14.35;8.75;;;;;;;13.73;69.94;99839.94;10383833;28;20132;-66
2022/11/08 22:39:20;;;;;;;13.52;8.77;;;;;;;13.74;70.00;99838.06;10386567;28;20073;-66
2022/11/08 22:44:22;;;;;;;15.27;8.48;;;;;;;13.71;69.98;99842.03;10372681;28;20698;-66
2022/11/08 22:49:23;;;;;;;18.33;9.20;;;;;;;13.72;70.22;99846.38;10387440;28;20152;-66
2022/11/08 22:54:25;;;;;;;14.45;8.98;;;;;;;13.72;70.17;99845.56;10394624;28;20041;-67
2022/11/08 22:59:26;;;;;;;15.02;9.88;;;;;;;13.70;70.30;99843.06;10377215;28;20144;-66
2022/11/08 23:04:28;;;;;;;10.90;7.68;;;;;;;13.68;70.41;99843.28;10390978;28;20203;-66
2022/11/08 23:09:29;;;;;;;15.10;7.75;;;;;;;13.64;70.04;99847.41;10389489;28;20479;-66
2022/11/08 23:25:27;;;;;;;14.20;8.32;;;;;;;13.54;70.67;99836.22;10390919;28;20101;-66
2022/11/08 23:36:10;;;;;;;12.90;7.85;;;;;;;13.55;70.84;99810.06;10389575;28;20137;-66
2022/11/08 23:46:31;;;;;;;11.30;8.32;;;;;;;13.45;70.79;99823.97;10388867;28;20132;-67
2022/11/08 23:51:33;;;;;;;16.15;8.07;;;;;;;13.41;71.06;99818.16;10387203;28;20073;-68
2022/11/08 23:56:34;;;;;;;24.88;15.55;;;;;;;13.41;70.96;99806.53;10388180;28;20045;-68
